Terminal Aerodrome Forecast
Issued by NWS

Home | Current Version | Previous Version | Text Only | Print | Product List | Glossary On
Versions: 1 2 3 4 5 6 7 8 9 10 11 12 13 14 15 16 17 18 19 20 21 22 23 24 25 26 27 28 29 30 31 32 33 34 35 36 37 38 39 40 41 42 43 44 45 46 47 48 49 50
000
FTUS46 KOTX 271407 AAA
TAFSFF
TAF AMD
KSFF 271407Z 2714/2812 21004KT P6SM VCSH OVC009
     FM271500 24004KT 6SM -SHSN BR BKN008 OVC012
     FM271800 22006KT P6SM -SHSN SCT015 OVC028
     FM280400 21005KT 1 1/2SM -SN SCT008 OVC015
     FM280900 24003KT 5SM BR SCT006 OVC012=

USA.gov is the U.S. government's official web portal to all federal, state and local government web resources and services.